Latest Weather Observations for Garden Island

IDW60901

Issued at 9:01 pm WST Tuesday 28 January 2020 (issued every 10 minutes, with the page automatically refreshed every 10 minutes)

About weather observations | Map of Perth area stations | Latest observations for Perth area | Other Formats
Station Details ID: 009256 Name: GARDEN ISLAND HSF Lat: -32.24 Lon: 115.68 Height: 6.0 m
Data from the previous 72 hours. | See also: Recent months at Garden Island
Date/Time
WST
Temp
°C
App
Temp
°C
Dew
Point
°C
Rel
Hum
%
Delta-T
°C
Wind Press
QNH
hPa
Press
MSL
hPa
Rain since
9am
mm
Dir  Spd
km/h
Gust
km/h
Spd
kts
Gust
kts
28/09:00pm 21.5 19.4 19.8 90 1.1 SSW 30 35 16 19 1009.9 1009.9 0.0
28/08:30pm 21.5 18.9 19.6 89 1.2 SW 32 39 17 21 1009.9 1009.9 0.0
28/08:00pm 21.8 19.8 19.9 89 1.2 SSW 30 35 16 19 1009.8 1009.8 0.0
28/07:30pm 21.9 19.8 19.8 88 1.3 SSW 30 35 16 19 1009.5 1009.5 0.0
28/07:00pm 22.1 20.0 19.8 87 1.5 SW 30 33 16 18 1009.6 1009.6 0.0
28/06:30pm 22.3 19.8 19.7 85 1.7 SSW 32 37 17 20 1009.3 1009.3 0.0
28/06:00pm 22.6 20.3 20.1 86 1.6 SSW 32 37 17 20 1009.0 1009.0 0.0
28/05:30pm 23.1 21.2 20.1 83 1.9 SSW 30 35 16 19 1008.8 1008.8 0.0
28/05:00pm 23.2 20.7 19.8 81 2.2 SSW 32 35 17 19 1008.6 1008.6 0.0
28/04:30pm 23.7 21.9 20.4 82 2.1 SSW 30 35 16 19 1008.5 1008.5 0.0
28/04:00pm 23.7 21.3 20.4 82 2.1 SSW 33 39 18 21 1008.6 1008.6 0.0
28/03:30pm 23.5 20.9 19.8 80 2.4 SSW 33 39 18 21 1008.8 1008.8 0.0
28/03:00pm 24.4 22.8 20.7 80 2.4 SSW 30 35 16 19 1009.0 1009.0 0.0
28/02:30pm 24.4 22.1 20.1 77 2.8 SSW 32 37 17 20 1009.1 1009.1 0.0
28/02:00pm 24.7 22.0 19.3 72 3.5 SSW 32 35 17 19 1009.0 1009.0 0.0
28/01:30pm 24.8 23.2 20.1 75 3.0 SSW 28 32 15 17 1009.3 1009.3 0.0
28/01:00pm 24.5 23.3 20.0 76 2.9 SSW 26 30 14 16 1009.6 1009.6 0.0
28/12:30pm 25.0 25.3 20.7 77 2.8 SSW 20 22 11 12 1009.8 1009.8 0.0
28/12:00pm 24.5 23.8 20.2 77 2.8 SSW 24 28 13 15 1009.8 1009.8 0.0
28/11:30am 24.5 23.4 21.0 81 2.3 SSW 28 32 15 17 1009.9 1009.9 0.0
28/11:00am 24.5 24.7 20.6 79 2.5 SSW 20 24 11 13 1010.0 1010.0 0.0
28/10:30am 24.7 24.5 21.2 81 2.3 SW 24 30 13 16 1010.1 1010.1 0.0
28/10:00am 25.1 25.6 20.8 77 2.8 SW 19 24 10 13 1010.1 1010.1 0.0
28/09:30am 25.5 26.6 20.5 74 3.3 SW 15 19 8 10 1010.1 1010.1 0.0
28/09:00am 25.7 28.1 20.0 71 3.7 SSW 7 9 4 5 1010.1 1010.1 0.0
28/08:30am 25.9 28.6 20.7 73 3.4 S 7 9 4 5 1010.1 1010.1 0.0
28/08:00am 25.4 27.6 19.5 70 3.8 SSE 7 9 4 5 1010.1 1010.1 0.0
28/07:30am 24.5 24.9 19.1 72 3.4 S 15 17 8 9 1010.0 1010.0 0.0
28/07:00am 24.1 24.0 18.7 72 3.4 S 17 20 9 11 1010.0 1010.0 0.0
28/06:30am 24.2 24.5 19.7 76 2.9 S 17 19 9 10 1010.0 1010.0 0.0
28/06:00am 23.8 24.7 19.3 76 2.9 S 13 13 7 7 1009.8 1009.8 0.0
28/05:30am 23.6 24.4 19.1 76 2.9 S 13 15 7 8 1009.4 1009.4 0.0
28/05:00am 23.8 24.3 19.3 76 2.9 S 15 15 8 8 1009.2 1009.2 0.0
28/04:30am 23.8 24.7 19.3 76 2.9 SSE 13 15 7 8 1009.1 1009.1 0.0
28/04:00am 23.6 24.9 19.3 77 2.7 SSE 11 15 6 8 1008.8 1008.8 0.0
28/03:30am 23.2 24.5 18.5 75 3.0 SSE 9 11 5 6 1008.7 1008.7 0.0
28/03:00am 23.5 25.0 19.0 76 2.9 SE 9 11 5 6 1008.8 1008.8 0.0
28/02:30am 23.7 24.4 18.8 74 3.1 SSE 13 15 7 8 1009.0 1009.0 0.0
28/02:00am 24.5 24.4 19.6 74 3.2 S 19 22 10 12 1009.0 1009.0 0.0
28/01:30am 24.5 24.7 20.2 77 2.8 S 19 22 10 12 1009.1 1009.1 0.0
28/01:00am 24.6 25.1 20.9 80 2.4 S 19 20 10 11 1009.3 1009.3 0.0
28/12:30am 24.5 25.3 21.4 83 2.0 S 19 24 10 13 1009.7 1009.7 0.0
28/12:00am 24.4 26.2 21.9 86 1.7 S 15 19 8 10 1009.8 1009.8 0.0
 
Date/Time
WST
Temp
°C
App
Temp
°C
Dew
Point
°C
Rel
Hum
%
Delta-T
°C
Wind Press
QNH
hPa
Press
MSL
hPa
Rain since
9am
mm
Dir  Spd
km/h
Gust
km/h
Spd
kts
Gust
kts
27/11:30pm 24.5 27.1 22.0 86 1.7 S 11 13 6 7 1010.1 1010.1 0.0
27/11:00pm 24.4 26.9 21.7 85 1.8 SSE 11 13 6 7 1010.2 1010.2 0.0
27/10:30pm 24.6 26.7 21.7 84 1.9 SSE 13 17 7 9 1010.7 1010.7 0.0
27/10:00pm 24.6 25.5 21.5 83 2.1 S 19 20 10 11 1010.9 1010.9 0.0
27/09:30pm 24.3 24.8 21.2 83 2.0 S 20 22 11 12 1011.1 1011.1 0.0
27/09:00pm 24.3 24.8 21.2 83 2.0 SSW 20 22 11 12 1011.0 1011.0 0.0
27/08:30pm 24.3 23.9 21.0 82 2.2 SSW 24 26 13 14 1011.0 1011.0 0.0
27/08:00pm 24.2 22.8 20.5 80 2.4 SSW 28 30 15 16 1010.8 1010.8 0.0
27/07:30pm 24.2 23.7 20.7 81 2.3 SSW 24 28 13 15 1010.6 1010.6 0.0
27/07:00pm 24.5 24.3 20.6 79 2.5 SSW 22 26 12 14 1010.6 1010.6 0.0
27/06:30pm 24.9 24.8 20.8 78 2.7 SSW 22 28 12 15 1010.4 1010.4 0.0
27/06:00pm 25.1 25.2 20.4 75 3.1 SSW 20 22 11 12 1010.2 1010.2 0.0
27/05:30pm 25.2 25.4 20.2 74 3.3 SSW 19 22 10 12 1010.1 1010.1 0.0
27/05:00pm 25.4 25.4 20.2 73 3.4 SSW 20 24 11 13 1010.1 1010.1 0.0
27/04:30pm 25.5 24.7 20.1 72 3.5 SSW 24 26 13 14 1009.9 1009.9 0.0
27/04:00pm 25.9 25.7 20.5 72 3.5 SSW 22 28 12 15 1010.1 1010.1 0.0
27/03:30pm 26.6 26.2 20.2 68 4.2 SSW 22 26 12 14 1010.3 1010.3 0.0
27/03:00pm 26.3 25.4 19.9 68 4.2 SSW 24 28 13 15 1010.4 1010.4 0.0
27/02:30pm 27.0 26.5 19.9 65 4.6 SSW 22 26 12 14 1010.6 1010.6 0.0
27/02:00pm 26.3 25.8 19.9 68 4.2 SSW 22 28 12 15 1010.9 1010.9 0.0
27/01:30pm 25.8 24.5 19.9 70 3.8 SSW 26 32 14 17 1011.3 1011.3 0.0
27/01:00pm 25.9 24.1 19.5 68 4.1 SW 28 32 15 17 1011.5 1011.5 0.0
27/12:30pm 26.1 25.0 20.2 70 3.8 SSW 26 30 14 16 1011.8 1011.8 0.0
27/12:00pm 25.8 24.9 19.9 70 3.8 SW 24 28 13 15 1012.0 1012.0 0.0
27/11:30am 25.7 24.9 19.3 67 4.1 SSW 22 26 12 14 1012.2 1012.2 0.0
27/11:00am 26.0 26.0 20.1 70 3.8 SSW 20 24 11 13 1012.3 1012.3 0.0
27/10:30am 26.2 26.0 19.8 68 4.2 SW 20 24 11 13 1012.8 1012.8 0.0
27/10:00am 25.8 25.7 19.9 70 3.8 SSW 20 22 11 12 1012.9 1012.9 0.0
27/09:30am 25.8 26.6 19.0 66 4.4 SW 13 17 7 9 1013.0 1013.0 0.0
27/09:00am 28.8 28.9 13.9 40 8.9 SSE 6 7 3 4 1013.0 1013.0 0.0
27/08:30am 27.6 28.2 15.9 49 7.2 SE 7 11 4 6 1013.0 1013.0 0.0
27/08:00am 28.1 27.0 14.3 42 8.3 E 13 17 7 9 1012.9 1012.9 0.0
27/07:30am 25.7 25.2 14.8 51 6.5 ESE 11 15 6 8 1013.1 1013.1 0.0
27/07:00am 24.7 24.5 15.6 57 5.5 SE 11 11 6 6 1013.0 1013.0 0.0
27/06:30am 24.1 24.6 16.6 63 4.6 SE 9 11 5 6 1013.0 1013.0 0.0
27/06:00am 23.3 23.9 16.8 67 4.0 SE 9 11 5 6 1012.6 1012.6 0.0
27/05:30am 23.2 23.1 16.0 64 4.4 ESE 11 19 6 10 1012.5 1012.5 0.0
27/05:00am 23.8 23.3 15.8 61 4.8 ESE 13 20 7 11 1012.2 1012.2 0.0
27/04:30am 24.1 24.2 17.4 66 4.2 ESE 13 17 7 9 1012.0 1012.0 0.0
27/04:00am 24.1 24.2 17.4 66 4.2 E 13 19 7 10 1011.7 1011.7 0.0
27/03:30am 24.1 24.2 17.4 66 4.2 ESE 13 20 7 11 1011.4 1011.4 0.0
27/03:00am 24.1 24.5 18.1 69 3.8 SE 13 15 7 8 1011.3 1011.3 0.0
27/02:30am 24.3 24.3 18.9 72 3.4 SSE 17 19 9 10 1011.4 1011.4 0.0
27/02:00am 24.0 24.4 18.9 73 3.2 SSE 15 19 8 10 1011.3 1011.3 0.0
27/01:30am 23.4 24.7 19.3 78 2.6 SSE 11 13 6 7 1011.2 1011.2 0.0
27/01:00am 23.3 24.4 18.8 76 2.8 SSE 11 11 6 6 1011.4 1011.4 0.0
27/12:30am 23.8 24.1 18.7 73 3.2 SSE 15 17 8 9 1011.8 1011.8 0.0
27/12:00am 24.4 23.8 18.8 71 3.6 SSE 20 24 11 13 1012.1 1012.1 0.0
 
Date/Time
WST
Temp
°C
App
Temp
°C
Dew
Point
°C
Rel
Hum
%
Delta-T
°C
Wind Press
QNH
hPa
Press
MSL
hPa
Rain since
9am
mm
Dir  Spd
km/h
Gust
km/h
Spd
kts
Gust
kts
26/11:30pm 24.0 24.7 20.5 81 2.3 SSE 17 20 9 11 1012.3 1012.3 0.0
26/11:00pm 24.2 24.7 21.1 83 2.0 SSE 20 22 11 12 1012.5 1012.5 0.0
26/10:30pm 23.8 23.4 20.9 84 1.9 S 24 28 13 15 1012.7 1012.7 0.0
26/10:00pm 23.9 23.4 20.8 83 2.0 S 24 30 13 16 1013.1 1013.1 0.0
26/09:30pm 24.0 22.6 20.5 81 2.3 S 28 32 15 17 1013.3 1013.3 0.0
26/09:00pm 24.0 22.4 20.1 79 2.5 S 28 32 15 17 1013.1 1013.1 0.0
26/08:30pm 23.9 22.8 20.2 80 2.4 S 26 30 14 16 1013.1 1013.1 0.0
26/08:00pm 23.9 22.7 20.0 79 2.5 S 26 28 14 15 1013.0 1013.0 0.0
26/07:30pm 23.8 21.9 20.1 80 2.4 SSW 30 33 16 18 1012.9 1012.9 0.0
26/07:00pm 23.5 22.4 20.2 82 2.1 SSW 26 32 14 17 1012.7 1012.7 0.0
26/06:30pm 23.6 22.8 20.1 81 2.3 SSW 24 28 13 15 1012.6 1012.6 0.0
26/06:00pm 23.6 21.9 19.7 79 2.5 SSW 28 32 15 17 1012.4 1012.4 0.0
26/05:30pm 23.8 21.7 19.7 78 2.6 SSW 30 35 16 19 1012.2 1012.2 0.0
26/05:00pm 23.7 21.7 20.0 80 2.4 SSW 30 35 16 19 1012.5 1012.5 0.0
26/04:30pm 23.5 21.0 19.8 80 2.4 SSW 32 37 17 20 1012.7 1012.7 0.0
26/04:00pm 23.9 21.8 19.8 78 2.6 SSW 30 37 16 20 1012.8 1012.8 0.0
26/03:30pm 24.1 21.6 19.8 77 2.8 SSW 32 37 17 20 1012.9 1012.9 0.0
26/03:00pm 24.2 21.7 20.1 78 2.7 SSW 33 41 18 22 1012.9 1012.9 0.0
26/02:30pm 24.1 21.2 20.0 78 2.6 SSW 35 41 19 22 1013.1 1013.1 0.0
26/02:00pm 24.0 20.9 19.7 77 2.8 SW 35 43 19 23 1013.4 1013.4 0.0
26/01:30pm 24.2 22.0 20.3 79 2.5 SW 32 39 17 21 1013.6 1013.6 0.0
26/01:00pm 24.3 22.4 20.2 78 2.7 SSW 30 33 16 18 1013.6 1013.6 0.0
26/12:30pm 24.0 22.1 20.1 79 2.5 SSW 30 33 16 18 1013.7 1013.7 0.0
26/12:00pm 24.2 23.3 20.7 81 2.3 SSW 26 32 14 17 1014.1 1014.1 0.0
26/11:30am 23.9 22.5 20.4 81 2.3 SSW 28 32 15 17 1014.1 1014.1 0.0
26/11:00am 24.0 22.4 20.1 79 2.5 SSW 28 32 15 17 1014.4 1014.4 0.0
26/10:30am 24.3 22.5 18.7 71 3.6 SSW 26 30 14 16 1014.7 1014.7 0.0
26/10:00am 24.0 22.4 19.1 74 3.1 SSW 26 30 14 16 1015.0 1015.0 0.0
26/09:30am 24.0 22.9 17.7 68 3.9 SSW 20 24 11 13 1015.3 1015.3 0.0
26/09:00am 24.6 25.2 17.8 66 4.3 S 11 17 6 9 1015.5 1015.5 0.0
26/08:30am 24.3 23.8 16.0 60 5.0 SSE 13 17 7 9 1015.7 1015.7 0.0
26/08:00am 24.2 22.9 15.9 59 5.0 SE 17 20 9 11 1015.7 1015.7 0.0
26/07:30am 23.3 22.6 16.4 65 4.2 SE 15 19 8 10 1015.6 1015.6 0.0
26/07:00am 22.6 21.5 16.4 68 3.8 ESE 17 22 9 12 1015.3 1015.3 0.0
26/06:30am 21.9 20.8 16.4 71 3.3 ESE 17 19 9 10 1015.2 1015.2 0.0
26/06:00am 21.4 21.2 16.8 75 2.8 SE 13 19 7 10 1014.8 1014.8 0.0
26/05:30am 21.6 20.5 17.4 77 2.6 SE 19 20 10 11 1014.6 1014.6 0.0
26/05:00am 21.8 20.8 17.6 77 2.6 SSE 19 20 10 11 1014.5 1014.5 0.0
26/04:30am 22.3 21.4 18.1 77 2.6 SSE 20 24 11 13 1014.3 1014.3 0.0
26/04:00am 22.7 22.0 18.7 78 2.5 SSE 20 26 11 14 1014.2 1014.2 0.0
26/03:30am 23.0 22.8 19.8 82 2.1 SSE 20 26 11 14 1014.1 1014.1 0.0
26/03:00am 22.9 22.5 20.1 84 1.8 S 22 28 12 15 1013.8 1013.8 0.0
26/02:30am 22.9 21.5 19.7 82 2.1 S 26 30 14 16 1013.8 1013.8 0.0
26/02:00am 22.7 21.4 19.9 84 1.8 S 26 32 14 17 1013.9 1013.9 0.0
26/01:30am 22.9 22.1 20.8 88 1.4 S 26 28 14 15 1014.0 1014.0 0.0
26/01:00am 22.8 21.4 20.5 87 1.5 S 28 30 15 16 1014.0 1014.0 0.0
26/12:30am 22.7 20.6 20.6 88 1.4 S 32 35 17 19 1014.1 1014.1 0.0
26/12:00am 22.6 19.8 20.3 87 1.5 SSW 35 41 19 22 1014.2 1014.2 0.0
 
Date/Time
WST
Temp
°C
App
Temp
°C
Dew
Point
°C
Rel
Hum
%
Delta-T
°C
Wind Press
QNH
hPa
Press
MSL
hPa
Rain since
9am
mm
Dir  Spd
km/h
Gust
km/h
Spd
kts
Gust
kts
25/11:30pm 22.9 20.9 20.8 88 1.4 SSW 32 35 17 19 1014.2 1014.2 0.0
25/11:00pm 23.0 21.7 20.7 87 1.5 SSW 28 32 15 17 1014.2 1014.2 0.0
25/10:30pm 23.2 22.3 20.7 86 1.6 S 26 30 14 16 1014.1 1014.1 0.0
25/10:00pm 23.0 20.9 20.5 86 1.6 S 32 37 17 20 1014.4 1014.4 0.0
25/09:30pm 22.8 20.6 20.3 86 1.6 SSW 32 35 17 19 1014.5 1014.5 0.0

Latest Capital City Observations: Canberra | Sydney | Melbourne | Brisbane | Adelaide | Perth | Hobart | Darwin

Other formats

Comma delimited format used in spreadsheet applications
http://www.bom.gov.au/fwo/IDW60901/IDW60901.95607.axf

JavaScript Object Notation format (JSON) in row-major order
http://www.bom.gov.au/fwo/IDW60901/IDW60901.95607.json

Data quality

Most of these data are generated automatically and are frequently updated. Quality checks on data are not normally performed. It is possible for incorrect values to appear. Refer to information at About Latest Weather Observations and please check the disclaimer before using these data.